sensor_id;sensor_type;location;lat;lon;timestamp;P1;durP1;ratioP1;P2;durP2;ratioP2
69706;SDS011;56975;55.726;37.566;2023-08-31T00:00:00;16.2;;;7.3;;
69706;SDS011;56975;55.726;37.566;2023-08-31T00:05:00;14.5;;;8.0;;
69706;SDS011;56975;55.726;37.566;2023-08-31T00:10:00;17.0;;;8.4;;
69706;SDS011;56975;55.726;37.566;2023-08-31T00:15:00;23.9;;;9.2;;
69706;SDS011;56975;55.726;37.566;2023-08-31T00:20:00;17.6;;;9.4;;
69706;SDS011;56975;55.726;37.566;2023-08-31T00:25:00;17.7;;;10.1;;
69706;SDS011;56975;55.726;37.566;2023-08-31T00:30:00;17.6;;;9.6;;
69706;SDS011;56975;55.726;37.566;2023-08-31T00:35:00;20.0;;;10.6;;
69706;SDS011;56975;55.726;37.566;2023-08-31T00:40:00;15.0;;;9.6;;
69706;SDS011;56975;55.726;37.566;2023-08-31T00:45:00;21.8;;;10.3;;
69706;SDS011;56975;55.726;37.566;2023-08-31T00:50:00;17.4;;;10.0;;
69706;SDS011;56975;55.726;37.566;2023-08-31T00:55:00;17.7;;;10.6;;
69706;SDS011;56975;55.726;37.566;2023-08-31T01:00:00;18.9;;;9.9;;
69706;SDS011;56975;55.726;37.566;2023-08-31T01:05:03;18.4;;;10.0;;
69706;SDS011;56975;55.726;37.566;2023-08-31T01:10:02;18.0;;;10.2;;
69706;SDS011;56975;55.726;37.566;2023-08-31T01:15:02;19.5;;;11.2;;
69706;SDS011;56975;55.726;37.566;2023-08-31T01:20:01;24.7;;;11.5;;
69706;SDS011;56975;55.726;37.566;2023-08-31T01:25:00;20.8;;;11.3;;
69706;SDS011;56975;55.726;37.566;2023-08-31T01:30:00;20.2;;;11.4;;
69706;SDS011;56975;55.726;37.566;2023-08-31T01:35:00;27.5;;;14.4;;
69706;SDS011;56975;55.726;37.566;2023-08-31T01:40:01;29.0;;;16.8;;
69706;SDS011;56975;55.726;37.566;2023-08-31T01:45:00;32.2;;;16.2;;
69706;SDS011;56975;55.726;37.566;2023-08-31T01:50:00;24.9;;;15.8;;
69706;SDS011;56975;55.726;37.566;2023-08-31T01:55:00;31.6;;;15.6;;
69706;SDS011;56975;55.726;37.566;2023-08-31T02:00:00;23.6;;;14.0;;
69706;SDS011;56975;55.726;37.566;2023-08-31T02:05:01;25.4;;;13.9;;
69706;SDS011;56975;55.726;37.566;2023-08-31T02:10:00;22.2;;;13.3;;
69706;SDS011;56975;55.726;37.566;2023-08-31T02:15:00;23.2;;;13.0;;
69706;SDS011;56975;55.726;37.566;2023-08-31T02:20:00;24.5;;;12.9;;
69706;SDS011;56975;55.726;37.566;2023-08-31T02:25:00;23.4;;;12.8;;
69706;SDS011;56975;55.726;37.566;2023-08-31T02:30:00;26.6;;;12.8;;
69706;SDS011;56975;55.726;37.566;2023-08-31T02:35:00;25.4;;;12.9;;
69706;SDS011;56975;55.726;37.566;2023-08-31T02:40:00;23.7;;;13.5;;
69706;SDS011;56975;55.726;37.566;2023-08-31T02:45:00;22.1;;;12.3;;
69706;SDS011;56975;55.726;37.566;2023-08-31T02:50:00;26.1;;;13.2;;
69706;SDS011;56975;55.726;37.566;2023-08-31T02:55:00;23.0;;;12.3;;
69706;SDS011;56975;55.726;37.566;2023-08-31T03:00:00;29.2;;;12.9;;
69706;SDS011;56975;55.726;37.566;2023-08-31T03:05:00;28.6;;;11.8;;
69706;SDS011;56975;55.726;37.566;2023-08-31T03:10:00;22.2;;;12.1;;
69706;SDS011;56975;55.726;37.566;2023-08-31T03:15:00;21.7;;;10.9;;
69706;SDS011;56975;55.726;37.566;2023-08-31T03:20:00;31.4;;;12.5;;
69706;SDS011;56975;55.726;37.566;2023-08-31T03:25:00;20.9;;;12.2;;
69706;SDS011;56975;55.726;37.566;2023-08-31T03:30:00;26.4;;;11.1;;
69706;SDS011;56975;55.726;37.566;2023-08-31T03:35:01;22.2;;;11.5;;
69706;SDS011;56975;55.726;37.566;2023-08-31T03:40:00;22.7;;;11.2;;
69706;SDS011;56975;55.726;37.566;2023-08-31T03:45:00;22.4;;;11.4;;
69706;SDS011;56975;55.726;37.566;2023-08-31T03:50:00;20.8;;;10.5;;
69706;SDS011;56975;55.726;37.566;2023-08-31T03:55:00;19.1;;;10.6;;
69706;SDS011;56975;55.726;37.566;2023-08-31T04:00:00;25.9;;;11.9;;
69706;SDS011;56975;55.726;37.566;2023-08-31T04:05:00;23.8;;;12.1;;
69706;SDS011;56975;55.726;37.566;2023-08-31T04:10:01;19.3;;;11.8;;
69706;SDS011;56975;55.726;37.566;2023-08-31T04:15:00;24.1;;;12.3;;
69706;SDS011;56975;55.726;37.566;2023-08-31T04:20:00;20.8;;;12.3;;
69706;SDS011;56975;55.726;37.566;2023-08-31T04:25:00;21.1;;;12.2;;
69706;SDS011;56975;55.726;37.566;2023-08-31T04:30:00;24.4;;;12.7;;
69706;SDS011;56975;55.726;37.566;2023-08-31T04:35:00;23.0;;;12.4;;
69706;SDS011;56975;55.726;37.566;2023-08-31T04:40:00;22.0;;;12.5;;
69706;SDS011;56975;55.726;37.566;2023-08-31T04:45:00;28.9;;;13.2;;
69706;SDS011;56975;55.726;37.566;2023-08-31T04:50:00;27.0;;;12.9;;
69706;SDS011;56975;55.726;37.566;2023-08-31T04:55:00;28.3;;;12.9;;
69706;SDS011;56975;55.726;37.566;2023-08-31T05:00:00;21.6;;;12.0;;
69706;SDS011;56975;55.726;37.566;2023-08-31T05:05:00;22.7;;;12.8;;
69706;SDS011;56975;55.726;37.566;2023-08-31T05:10:00;29.9;;;12.3;;
69706;SDS011;56975;55.726;37.566;2023-08-31T05:15:00;26.6;;;13.3;;
69706;SDS011;56975;55.726;37.566;2023-08-31T05:20:00;24.8;;;13.9;;
69706;SDS011;56975;55.726;37.566;2023-08-31T05:25:00;22.4;;;13.2;;
69706;SDS011;56975;55.726;37.566;2023-08-31T05:30:00;25.6;;;13.1;;
69706;SDS011;56975;55.726;37.566;2023-08-31T05:35:00;30.5;;;13.7;;
69706;SDS011;56975;55.726;37.566;2023-08-31T05:40:00;25.7;;;12.8;;
69706;SDS011;56975;55.726;37.566;2023-08-31T05:45:00;24.2;;;12.5;;
69706;SDS011;56975;55.726;37.566;2023-08-31T05:50:00;25.0;;;12.5;;
69706;SDS011;56975;55.726;37.566;2023-08-31T05:55:00;25.7;;;12.8;;
69706;SDS011;56975;55.726;37.566;2023-08-31T06:00:00;24.4;;;11.9;;
69706;SDS011;56975;55.726;37.566;2023-08-31T06:05:00;22.0;;;12.2;;
69706;SDS011;56975;55.726;37.566;2023-08-31T06:10:00;23.5;;;12.9;;
69706;SDS011;56975;55.726;37.566;2023-08-31T06:15:00;29.4;;;12.8;;
69706;SDS011;56975;55.726;37.566;2023-08-31T06:20:00;24.9;;;12.5;;
69706;SDS011;56975;55.726;37.566;2023-08-31T06:25:00;24.7;;;11.7;;
69706;SDS011;56975;55.726;37.566;2023-08-31T06:30:00;25.5;;;11.3;;
69706;SDS011;56975;55.726;37.566;2023-08-31T06:35:00;24.0;;;12.3;;
69706;SDS011;56975;55.726;37.566;2023-08-31T06:40:00;25.8;;;11.9;;
69706;SDS011;56975;55.726;37.566;2023-08-31T06:45:00;33.6;;;11.9;;
69706;SDS011;56975;55.726;37.566;2023-08-31T06:50:00;24.4;;;10.9;;
69706;SDS011;56975;55.726;37.566;2023-08-31T06:55:00;19.3;;;9.8;;
69706;SDS011;56975;55.726;37.566;2023-08-31T07:00:00;18.6;;;9.3;;
69706;SDS011;56975;55.726;37.566;2023-08-31T07:05:00;21.2;;;9.6;;
69706;SDS011;56975;55.726;37.566;2023-08-31T07:10:00;19.4;;;9.1;;
69706;SDS011;56975;55.726;37.566;2023-08-31T07:15:00;22.7;;;8.8;;
69706;SDS011;56975;55.726;37.566;2023-08-31T07:20:00;17.9;;;9.2;;
69706;SDS011;56975;55.726;37.566;2023-08-31T07:25:00;21.3;;;9.5;;
69706;SDS011;56975;55.726;37.566;2023-08-31T07:30:00;18.3;;;9.7;;
69706;SDS011;56975;55.726;37.566;2023-08-31T07:35:00;20.4;;;10.4;;
69706;SDS011;56975;55.726;37.566;2023-08-31T07:40:00;27.5;;;10.1;;
69706;SDS011;56975;55.726;37.566;2023-08-31T07:45:00;17.6;;;9.3;;
69706;SDS011;56975;55.726;37.566;2023-08-31T07:50:00;18.3;;;9.4;;
69706;SDS011;56975;55.726;37.566;2023-08-31T07:55:00;19.3;;;9.2;;
69706;SDS011;56975;55.726;37.566;2023-08-31T08:00:00;24.3;;;10.3;;
69706;SDS011;56975;55.726;37.566;2023-08-31T08:05:00;21.7;;;10.3;;
69706;SDS011;56975;55.726;37.566;2023-08-31T08:10:00;22.7;;;9.4;;
69706;SDS011;56975;55.726;37.566;2023-08-31T08:15:00;19.9;;;9.4;;
69706;SDS011;56975;55.726;37.566;2023-08-31T08:20:00;17.9;;;9.6;;
69706;SDS011;56975;55.726;37.566;2023-08-31T08:25:00;18.0;;;9.1;;
69706;SDS011;56975;55.726;37.566;2023-08-31T08:30:00;19.6;;;9.2;;
69706;SDS011;56975;55.726;37.566;2023-08-31T08:35:00;23.0;;;9.1;;
69706;SDS011;56975;55.726;37.566;2023-08-31T08:40:00;17.1;;;7.9;;
69706;SDS011;56975;55.726;37.566;2023-08-31T08:45:00;18.5;;;8.5;;
69706;SDS011;56975;55.726;37.566;2023-08-31T08:50:00;14.4;;;7.2;;
69706;SDS011;56975;55.726;37.566;2023-08-31T08:55:00;15.0;;;7.9;;
69706;SDS011;56975;55.726;37.566;2023-08-31T09:00:00;19.0;;;7.3;;
69706;SDS011;56975;55.726;37.566;2023-08-31T09:05:00;15.7;;;7.4;;
69706;SDS011;56975;55.726;37.566;2023-08-31T09:10:00;15.4;;;7.4;;
69706;SDS011;56975;55.726;37.566;2023-08-31T09:15:00;15.9;;;7.3;;
69706;SDS011;56975;55.726;37.566;2023-08-31T09:20:00;16.6;;;7.3;;
69706;SDS011;56975;55.726;37.566;2023-08-31T09:25:00;13.5;;;6.6;;
69706;SDS011;56975;55.726;37.566;2023-08-31T09:30:00;11.5;;;6.6;;
69706;SDS011;56975;55.726;37.566;2023-08-31T09:35:00;14.0;;;6.7;;
69706;SDS011;56975;55.726;37.566;2023-08-31T09:40:01;21.7;;;7.0;;
69706;SDS011;56975;55.726;37.566;2023-08-31T09:45:00;19.1;;;6.4;;
69706;SDS011;56975;55.726;37.566;2023-08-31T09:50:00;13.6;;;6.1;;
69706;SDS011;56975;55.726;37.566;2023-08-31T09:55:00;17.3;;;6.2;;
69706;SDS011;56975;55.726;37.566;2023-08-31T10:00:00;14.9;;;6.1;;
69706;SDS011;56975;55.726;37.566;2023-08-31T10:05:00;12.5;;;6.2;;
69706;SDS011;56975;55.726;37.566;2023-08-31T10:10:00;12.6;;;7.0;;
69706;SDS011;56975;55.726;37.566;2023-08-31T10:15:00;17.2;;;6.5;;
69706;SDS011;56975;55.726;37.566;2023-08-31T10:20:00;11.0;;;6.1;;
69706;SDS011;56975;55.726;37.566;2023-08-31T10:25:00;9.7;;;5.8;;
69706;SDS011;56975;55.726;37.566;2023-08-31T10:30:08;11.7;;;6.0;;
69706;SDS011;56975;55.726;37.566;2023-08-31T10:35:08;14.6;;;6.4;;
69706;SDS011;56975;55.726;37.566;2023-08-31T10:40:07;16.3;;;6.4;;
69706;SDS011;56975;55.726;37.566;2023-08-31T10:45:05;10.4;;;6.1;;
69706;SDS011;56975;55.726;37.566;2023-08-31T10:50:05;10.1;;;6.0;;
69706;SDS011;56975;55.726;37.566;2023-08-31T10:55:00;12.7;;;6.1;;
69706;SDS011;56975;55.726;37.566;2023-08-31T11:00:00;13.1;;;5.7;;
69706;SDS011;56975;55.726;37.566;2023-08-31T11:05:00;11.9;;;5.9;;
69706;SDS011;56975;55.726;37.566;2023-08-31T11:10:08;15.3;;;6.3;;
69706;SDS011;56975;55.726;37.566;2023-08-31T11:15:00;11.4;;;5.8;;
69706;SDS011;56975;55.726;37.566;2023-08-31T11:20:00;14.1;;;6.3;;
69706;SDS011;56975;55.726;37.566;2023-08-31T11:25:00;10.8;;;6.4;;
69706;SDS011;56975;55.726;37.566;2023-08-31T11:30:00;11.1;;;5.8;;
69706;SDS011;56975;55.726;37.566;2023-08-31T11:35:00;11.8;;;6.0;;
69706;SDS011;56975;55.726;37.566;2023-08-31T11:40:00;12.3;;;5.7;;
69706;SDS011;56975;55.726;37.566;2023-08-31T11:45:00;10.1;;;5.7;;
69706;SDS011;56975;55.726;37.566;2023-08-31T11:50:00;10.2;;;5.8;;
69706;SDS011;56975;55.726;37.566;2023-08-31T11:55:00;14.1;;;6.1;;
69706;SDS011;56975;55.726;37.566;2023-08-31T12:00:00;13.4;;;6.0;;
69706;SDS011;56975;55.726;37.566;2023-08-31T12:05:00;15.8;;;5.9;;
69706;SDS011;56975;55.726;37.566;2023-08-31T12:10:02;12.4;;;5.7;;
69706;SDS011;56975;55.726;37.566;2023-08-31T12:15:01;13.1;;;5.5;;
69706;SDS011;56975;55.726;37.566;2023-08-31T12:20:02;16.8;;;5.5;;
69706;SDS011;56975;55.726;37.566;2023-08-31T12:25:00;11.0;;;5.5;;
69706;SDS011;56975;55.726;37.566;2023-08-31T12:30:00;11.6;;;5.7;;
69706;SDS011;56975;55.726;37.566;2023-08-31T12:35:00;13.9;;;5.6;;
69706;SDS011;56975;55.726;37.566;2023-08-31T12:40:00;13.9;;;5.8;;
69706;SDS011;56975;55.726;37.566;2023-08-31T12:45:00;13.2;;;6.4;;
69706;SDS011;56975;55.726;37.566;2023-08-31T12:50:00;17.6;;;6.0;;
69706;SDS011;56975;55.726;37.566;2023-08-31T12:55:00;12.0;;;5.5;;
69706;SDS011;56975;55.726;37.566;2023-08-31T13:00:00;10.8;;;6.1;;
69706;SDS011;56975;55.726;37.566;2023-08-31T13:05:00;13.4;;;5.4;;
69706;SDS011;56975;55.726;37.566;2023-08-31T13:10:00;15.7;;;6.1;;
69706;SDS011;56975;55.726;37.566;2023-08-31T13:15:00;11.3;;;5.5;;
69706;SDS011;56975;55.726;37.566;2023-08-31T13:20:00;16.4;;;5.8;;
69706;SDS011;56975;55.726;37.566;2023-08-31T13:25:00;9.8;;;5.4;;
69706;SDS011;56975;55.726;37.566;2023-08-31T13:30:00;12.2;;;5.7;;
69706;SDS011;56975;55.726;37.566;2023-08-31T13:35:00;15.3;;;5.5;;
69706;SDS011;56975;55.726;37.566;2023-08-31T13:40:00;15.0;;;5.8;;
69706;SDS011;56975;55.726;37.566;2023-08-31T13:45:00;20.1;;;6.1;;
69706;SDS011;56975;55.726;37.566;2023-08-31T13:50:00;11.0;;;6.0;;
69706;SDS011;56975;55.726;37.566;2023-08-31T13:55:00;15.5;;;6.1;;
69706;SDS011;56975;55.726;37.566;2023-08-31T14:00:00;14.8;;;6.3;;
69706;SDS011;56975;55.726;37.566;2023-08-31T14:05:00;17.3;;;6.6;;
69706;SDS011;56975;55.726;37.566;2023-08-31T14:10:00;11.1;;;5.4;;
69706;SDS011;56975;55.726;37.566;2023-08-31T14:15:00;14.0;;;6.2;;
69706;SDS011;56975;55.726;37.566;2023-08-31T14:20:00;18.0;;;6.1;;
69706;SDS011;56975;55.726;37.566;2023-08-31T14:25:00;13.6;;;6.0;;
69706;SDS011;56975;55.726;37.566;2023-08-31T14:30:00;13.6;;;5.6;;
69706;SDS011;56975;55.726;37.566;2023-08-31T14:35:00;16.3;;;6.5;;
69706;SDS011;56975;55.726;37.566;2023-08-31T14:40:00;14.1;;;6.2;;
69706;SDS011;56975;55.726;37.566;2023-08-31T14:45:00;14.4;;;6.9;;
69706;SDS011;56975;55.726;37.566;2023-08-31T14:50:00;12.3;;;6.0;;
69706;SDS011;56975;55.726;37.566;2023-08-31T14:55:00;15.7;;;7.0;;
69706;SDS011;56975;55.726;37.566;2023-08-31T15:00:00;16.8;;;6.5;;
69706;SDS011;56975;55.726;37.566;2023-08-31T15:05:00;19.4;;;7.3;;
69706;SDS011;56975;55.726;37.566;2023-08-31T15:10:00;14.8;;;6.7;;
69706;SDS011;56975;55.726;37.566;2023-08-31T15:15:00;14.8;;;6.7;;
69706;SDS011;56975;55.726;37.566;2023-08-31T15:20:00;17.2;;;7.1;;
69706;SDS011;56975;55.726;37.566;2023-08-31T15:25:00;13.7;;;7.8;;
69706;SDS011;56975;55.726;37.566;2023-08-31T15:30:00;14.9;;;6.8;;
69706;SDS011;56975;55.726;37.566;2023-08-31T15:35:00;13.1;;;6.9;;
69706;SDS011;56975;55.726;37.566;2023-08-31T15:40:00;14.0;;;7.2;;
69706;SDS011;56975;55.726;37.566;2023-08-31T15:45:01;14.3;;;7.0;;
69706;SDS011;56975;55.726;37.566;2023-08-31T15:50:00;15.6;;;7.9;;
69706;SDS011;56975;55.726;37.566;2023-08-31T15:55:01;16.6;;;7.5;;
69706;SDS011;56975;55.726;37.566;2023-08-31T16:00:00;20.7;;;8.2;;
69706;SDS011;56975;55.726;37.566;2023-08-31T16:05:03;15.1;;;7.6;;
69706;SDS011;56975;55.726;37.566;2023-08-31T16:10:00;20.1;;;8.6;;
69706;SDS011;56975;55.726;37.566;2023-08-31T16:15:00;18.3;;;7.5;;
69706;SDS011;56975;55.726;37.566;2023-08-31T16:20:00;22.3;;;7.6;;
69706;SDS011;56975;55.726;37.566;2023-08-31T16:25:00;19.1;;;7.7;;
69706;SDS011;56975;55.726;37.566;2023-08-31T16:30:00;16.4;;;7.9;;
69706;SDS011;56975;55.726;37.566;2023-08-31T16:35:00;20.0;;;8.5;;
69706;SDS011;56975;55.726;37.566;2023-08-31T16:40:00;20.6;;;8.3;;
69706;SDS011;56975;55.726;37.566;2023-08-31T16:45:00;19.8;;;8.0;;
69706;SDS011;56975;55.726;37.566;2023-08-31T16:50:00;23.7;;;8.3;;
69706;SDS011;56975;55.726;37.566;2023-08-31T16:55:00;18.3;;;8.2;;
69706;SDS011;56975;55.726;37.566;2023-08-31T17:00:00;22.5;;;9.2;;
69706;SDS011;56975;55.726;37.566;2023-08-31T17:05:00;15.1;;;7.4;;
69706;SDS011;56975;55.726;37.566;2023-08-31T17:10:00;19.4;;;7.5;;
69706;SDS011;56975;55.726;37.566;2023-08-31T17:15:00;21.8;;;7.7;;
69706;SDS011;56975;55.726;37.566;2023-08-31T17:20:00;16.7;;;8.2;;
69706;SDS011;56975;55.726;37.566;2023-08-31T17:25:00;18.3;;;7.9;;
69706;SDS011;56975;55.726;37.566;2023-08-31T17:30:00;18.2;;;7.5;;
69706;SDS011;56975;55.726;37.566;2023-08-31T17:35:00;11.7;;;7.4;;
69706;SDS011;56975;55.726;37.566;2023-08-31T17:40:00;17.8;;;7.0;;
69706;SDS011;56975;55.726;37.566;2023-08-31T17:45:00;16.1;;;7.0;;
69706;SDS011;56975;55.726;37.566;2023-08-31T17:50:00;15.1;;;7.5;;
69706;SDS011;56975;55.726;37.566;2023-08-31T17:55:00;21.0;;;7.5;;
69706;SDS011;56975;55.726;37.566;2023-08-31T18:00:00;22.6;;;8.8;;
69706;SDS011;56975;55.726;37.566;2023-08-31T18:05:00;17.1;;;7.9;;
69706;SDS011;56975;55.726;37.566;2023-08-31T18:10:00;20.5;;;8.2;;
69706;SDS011;56975;55.726;37.566;2023-08-31T18:15:00;20.1;;;8.7;;
69706;SDS011;56975;55.726;37.566;2023-08-31T18:20:00;17.8;;;8.6;;
69706;SDS011;56975;55.726;37.566;2023-08-31T18:25:00;21.9;;;9.3;;
69706;SDS011;56975;55.726;37.566;2023-08-31T18:30:00;19.0;;;9.0;;
69706;SDS011;56975;55.726;37.566;2023-08-31T18:35:00;17.0;;;8.4;;
69706;SDS011;56975;55.726;37.566;2023-08-31T18:40:00;17.8;;;8.1;;
69706;SDS011;56975;55.726;37.566;2023-08-31T18:45:00;22.6;;;8.5;;
69706;SDS011;56975;55.726;37.566;2023-08-31T18:50:00;17.6;;;7.8;;
69706;SDS011;56975;55.726;37.566;2023-08-31T18:55:00;18.7;;;8.5;;
69706;SDS011;56975;55.726;37.566;2023-08-31T19:00:00;21.6;;;8.7;;
69706;SDS011;56975;55.726;37.566;2023-08-31T19:05:00;20.4;;;8.3;;
69706;SDS011;56975;55.726;37.566;2023-08-31T19:10:00;23.9;;;9.0;;
69706;SDS011;56975;55.726;37.566;2023-08-31T19:15:00;18.2;;;9.2;;
69706;SDS011;56975;55.726;37.566;2023-08-31T19:20:00;20.6;;;8.9;;
69706;SDS011;56975;55.726;37.566;2023-08-31T19:25:00;15.8;;;8.3;;
69706;SDS011;56975;55.726;37.566;2023-08-31T19:30:00;20.7;;;8.8;;
69706;SDS011;56975;55.726;37.566;2023-08-31T19:35:00;24.6;;;9.5;;
69706;SDS011;56975;55.726;37.566;2023-08-31T19:40:00;17.3;;;8.8;;
69706;SDS011;56975;55.726;37.566;2023-08-31T19:45:00;19.2;;;8.4;;
69706;SDS011;56975;55.726;37.566;2023-08-31T19:50:00;20.8;;;8.3;;
69706;SDS011;56975;55.726;37.566;2023-08-31T19:55:00;22.8;;;9.0;;
69706;SDS011;56975;55.726;37.566;2023-08-31T20:00:00;19.4;;;8.9;;
69706;SDS011;56975;55.726;37.566;2023-08-31T20:05:00;17.0;;;8.4;;
69706;SDS011;56975;55.726;37.566;2023-08-31T20:10:00;16.0;;;8.5;;
69706;SDS011;56975;55.726;37.566;2023-08-31T20:15:00;23.3;;;9.4;;
69706;SDS011;56975;55.726;37.566;2023-08-31T20:20:00;23.2;;;9.8;;
69706;SDS011;56975;55.726;37.566;2023-08-31T20:25:00;19.7;;;8.5;;
69706;SDS011;56975;55.726;37.566;2023-08-31T20:30:00;18.5;;;9.4;;
69706;SDS011;56975;55.726;37.566;2023-08-31T20:35:00;21.2;;;8.7;;
69706;SDS011;56975;55.726;37.566;2023-08-31T20:40:00;15.2;;;8.1;;
69706;SDS011;56975;55.726;37.566;2023-08-31T20:45:00;15.3;;;8.8;;
69706;SDS011;56975;55.726;37.566;2023-08-31T20:50:00;20.3;;;8.9;;
69706;SDS011;56975;55.726;37.566;2023-08-31T20:55:00;22.8;;;9.2;;
69706;SDS011;56975;55.726;37.566;2023-08-31T21:00:00;21.1;;;9.2;;
69706;SDS011;56975;55.726;37.566;2023-08-31T21:05:00;22.8;;;12.0;;
69706;SDS011;56975;55.726;37.566;2023-08-31T21:10:00;25.6;;;10.6;;
69706;SDS011;56975;55.726;37.566;2023-08-31T21:15:00;22.2;;;10.1;;
69706;SDS011;56975;55.726;37.566;2023-08-31T21:20:00;19.8;;;9.0;;
69706;SDS011;56975;55.726;37.566;2023-08-31T21:25:00;20.5;;;8.6;;
69706;SDS011;56975;55.726;37.566;2023-08-31T21:30:00;20.6;;;9.4;;
69706;SDS011;56975;55.726;37.566;2023-08-31T21:35:00;19.3;;;8.9;;
69706;SDS011;56975;55.726;37.566;2023-08-31T21:40:00;21.6;;;9.0;;
69706;SDS011;56975;55.726;37.566;2023-08-31T21:45:00;25.1;;;9.0;;
69706;SDS011;56975;55.726;37.566;2023-08-31T21:50:00;22.4;;;8.7;;
69706;SDS011;56975;55.726;37.566;2023-08-31T21:55:00;17.5;;;8.5;;
69706;SDS011;56975;55.726;37.566;2023-08-31T22:00:00;18.4;;;8.2;;
69706;SDS011;56975;55.726;37.566;2023-08-31T22:05:00;19.8;;;9.5;;
69706;SDS011;56975;55.726;37.566;2023-08-31T22:10:00;18.5;;;9.0;;
69706;SDS011;56975;55.726;37.566;2023-08-31T22:15:00;17.9;;;8.7;;
69706;SDS011;56975;55.726;37.566;2023-08-31T22:20:00;18.1;;;8.9;;
69706;SDS011;56975;55.726;37.566;2023-08-31T22:25:00;18.0;;;8.7;;
69706;SDS011;56975;55.726;37.566;2023-08-31T22:30:00;17.0;;;8.8;;
69706;SDS011;56975;55.726;37.566;2023-08-31T22:35:00;19.7;;;8.9;;
69706;SDS011;56975;55.726;37.566;2023-08-31T22:40:00;16.8;;;8.5;;
69706;SDS011;56975;55.726;37.566;2023-08-31T22:45:00;22.2;;;9.5;;
69706;SDS011;56975;55.726;37.566;2023-08-31T22:50:00;16.3;;;8.7;;
69706;SDS011;56975;55.726;37.566;2023-08-31T22:55:00;16.4;;;8.9;;
69706;SDS011;56975;55.726;37.566;2023-08-31T23:00:00;17.8;;;9.0;;
69706;SDS011;56975;55.726;37.566;2023-08-31T23:05:00;18.1;;;9.4;;
69706;SDS011;56975;55.726;37.566;2023-08-31T23:10:00;17.6;;;9.7;;
69706;SDS011;56975;55.726;37.566;2023-08-31T23:15:00;18.2;;;9.5;;
69706;SDS011;56975;55.726;37.566;2023-08-31T23:20:00;19.6;;;9.7;;
69706;SDS011;56975;55.726;37.566;2023-08-31T23:25:00;20.2;;;9.6;;
69706;SDS011;56975;55.726;37.566;2023-08-31T23:30:00;21.8;;;10.2;;
69706;SDS011;56975;55.726;37.566;2023-08-31T23:35:00;21.6;;;9.8;;
69706;SDS011;56975;55.726;37.566;2023-08-31T23:40:00;16.8;;;9.2;;
69706;SDS011;56975;55.726;37.566;2023-08-31T23:45:00;17.8;;;9.3;;
69706;SDS011;56975;55.726;37.566;2023-08-31T23:50:00;17.0;;;9.8;;
69706;SDS011;56975;55.726;37.566;2023-08-31T23:55:00;19.5;;;9.7;;
